ポンタ・デルガダ の空港の天気 - METARとTAF

ポンタ・デルガダ空港 ( LPPD / PDL ) - ポルトガル ポンタ・デルガダ (サンミゲル島)
飛行場実況気象(Metar)
観測時間01/18 08:30 AZOT (01/18 09:30 UTC)
風向・風速北 2m/s
視程10km以上
天気現象
少しの雲 雲底高度 550m
全天の8割程度の雲 雲底高度 910m
気温13℃
湿度77%
気圧1032hPa
METARLPPD 180930Z 35004KT 9999 FEW018 BKN030 13/09 Q1032
過去の天気等 Google飛行場航空写真 Wunderground天気予報

過去48時間のMETAR

飛行場予報(TAF)
発表時間: 1/18 04:00 AZOT (1/18 05:00 UTC)
予報対象時間: 18日5時 AZOT ~ 19日5時 AZOT
風向・風速不定 3m/s
視程10km以上
少しの雲 雲底高度 550m
全天の8割程度の雲 雲底高度 910m
18日5時 AZOT ~ 18日23時 AZOT に一時的に
全天の4割程度の雲 雲底高度 760m
TAF LPPD 180500Z 1806/1906 VRB05KT 9999 FEW018 BKN030
TEMPO 1806/1824 SCT025